Angle Inlet, Minnesota
Current Conditions -  °F | °C
As of 12:54 AM on Monday 24 Nov 2014 (Local Time) from KFGN Reporting Station
Overcast Overcast  
Wind Chill:   Ceiling: 700
Heat Index: 23°   Visibility: 7mi
Dew Point: 21°   Wind: 20mph
Humidity: 93%   Direction: 360°N
Pressure: 29.47"   Gusts: NA
Location:  49.35°N, 95.08°W
Report Text: KFGN 240654Z AUTO 36017KT 7SM OVC007 M05/M06 A2947 RMK AO2
Loading
Personal Weather Stations






























Interactive Weather Map New forecast layout! Learn more

10-Day Weather Forecast

Advertisements
Track Severe Weather on mobile